createdAt,value
2017-11-08T00:00:58.437Z,32.43
2017-11-08T00:03:26.670Z,32.27
2017-11-08T00:05:54.949Z,28.20
2017-11-08T00:08:23.187Z,31.10
2017-11-08T00:10:51.447Z,29.67
2017-11-08T00:13:20.797Z,36.23
2017-11-08T00:15:51.824Z,31.67
2017-11-08T00:18:20.875Z,28.80
2017-11-08T00:20:49.878Z,28.40
2017-11-08T00:23:19.814Z,31.23
2017-11-08T00:25:48.086Z,32.10
2017-11-08T00:28:16.352Z,29.97
2017-11-08T00:30:44.591Z,35.00
2017-11-08T00:33:12.971Z,32.90
2017-11-08T00:35:41.231Z,32.70
2017-11-08T00:38:09.475Z,30.13
2017-11-08T00:40:39.076Z,28.80
2017-11-08T00:43:07.334Z,34.70
2017-11-08T00:45:35.574Z,38.53
2017-11-08T00:48:03.850Z,30.67
2017-11-08T00:50:32.098Z,34.27
2017-11-08T00:53:03.260Z,35.57
2017-11-08T00:55:31.954Z,32.40
2017-11-08T00:58:00.989Z,32.10
2017-11-08T01:00:29.269Z,30.77
2017-11-08T01:02:58.299Z,33.97
2017-11-08T01:05:26.539Z,35.73
2017-11-08T01:07:55.554Z,30.93
2017-11-08T01:10:23.831Z,35.27
2017-11-08T01:12:52.083Z,36.53
2017-11-08T01:15:20.330Z,32.03
2017-11-08T01:17:49.106Z,30.40
2017-11-08T01:20:17.730Z,37.27
2017-11-08T01:22:46.758Z,35.10
2017-11-08T01:25:15.019Z,35.00
2017-11-08T01:27:43.265Z,33.00
2017-11-08T01:30:11.514Z,32.90
2017-11-08T01:32:39.929Z,30.30
2017-11-08T01:35:08.948Z,34.43
2017-11-08T01:37:40.207Z,31.03
2017-11-08T01:40:09.538Z,32.60
2017-11-08T01:42:37.787Z,30.37
2017-11-08T01:45:07.953Z,34.07
2017-11-08T01:47:36.222Z,31.77
2017-11-08T01:50:04.474Z,32.00
2017-11-08T01:52:32.725Z,35.37
2017-11-08T01:55:01.014Z,33.07
2017-11-08T01:57:29.263Z,26.80
2017-11-08T01:59:58.278Z,30.37
2017-11-08T02:02:26.637Z,31.33
2017-11-08T02:04:54.904Z,31.17
2017-11-08T02:07:23.186Z,43.03
2017-11-08T02:09:51.463Z,29.90
2017-11-08T02:12:20.477Z,30.97
2017-11-08T02:14:48.727Z,35.67
2017-11-08T02:17:16.998Z,32.83
2017-11-08T02:19:46.018Z,33.13
2017-11-08T02:22:14.578Z,30.03
2017-11-08T02:24:46.798Z,28.23
2017-11-08T02:27:17.854Z,34.13
2017-11-08T02:29:46.100Z,30.83
2017-11-08T02:32:15.170Z,28.90
2017-11-08T02:34:44.186Z,29.87
2017-11-08T02:37:12.430Z,31.67
2017-11-08T02:39:40.710Z,30.03
2017-11-08T02:42:08.962Z,31.47
2017-11-08T02:44:37.210Z,33.17
2017-11-08T02:47:05.918Z,30.93
2017-11-08T02:49:34.150Z,30.70
2017-11-08T02:52:02.397Z,33.23
2017-11-08T02:54:30.678Z,33.67
2017-11-08T02:56:58.935Z,29.20
2017-11-08T02:59:27.167Z,29.93
2017-11-08T03:01:55.772Z,34.40
2017-11-08T03:04:25.846Z,32.40
2017-11-08T03:06:54.083Z,33.90
2017-11-08T03:09:22.412Z,31.90
2017-11-08T03:11:50.651Z,32.27
2017-11-08T03:14:18.898Z,31.57
2017-11-08T03:16:47.165Z,34.47
2017-11-08T03:19:15.402Z,33.67
2017-11-08T03:21:43.646Z,33.10
2017-11-08T03:24:12.179Z,39.23
2017-11-08T03:26:40.436Z,34.33
2017-11-08T03:29:09.454Z,31.13
2017-11-08T03:31:38.615Z,35.33
2017-11-08T03:34:06.858Z,35.90
2017-11-08T03:36:35.106Z,33.17
2017-11-08T03:39:03.413Z,36.20
2017-11-08T03:41:31.652Z,32.10
2017-11-08T03:43:59.893Z,35.27
2017-11-08T03:46:28.170Z,36.27
2017-11-08T03:48:56.418Z,34.77
2017-11-08T03:51:24.658Z,34.07
2017-11-08T03:53:53.118Z,38.20
2017-11-08T03:56:21.361Z,36.30
2017-11-08T03:58:49.605Z,32.73
2017-11-08T04:01:17.870Z,35.03
2017-11-08T04:03:46.118Z,33.43
2017-11-08T04:06:15.131Z,31.77
2017-11-08T04:08:43.410Z,32.00
2017-11-08T04:11:11.651Z,34.37
2017-11-08T04:13:39.897Z,34.90
2017-11-08T04:16:08.593Z,36.37
2017-11-08T04:18:36.846Z,34.57
2017-11-08T04:21:05.090Z,37.00
2017-11-08T04:23:33.358Z,37.90
2017-11-08T04:26:01.837Z,34.70
2017-11-08T04:28:30.851Z,38.87
2017-11-08T04:30:59.114Z,36.10
2017-11-08T04:33:27.355Z,47.33
2017-11-08T04:35:55.599Z,33.73
2017-11-08T04:38:23.970Z,40.67
2017-11-08T04:40:52.219Z,38.67
2017-11-08T04:43:20.462Z,36.97
2017-11-08T04:45:48.739Z,43.47
2017-11-08T04:48:16.997Z,40.70
2017-11-08T04:50:45.243Z,41.33
2017-11-08T04:53:13.737Z,36.13
2017-11-08T04:55:42.054Z,37.50
2017-11-08T04:58:10.297Z,36.93
2017-11-08T05:00:38.635Z,38.37
2017-11-08T05:03:06.882Z,38.43
2017-11-08T05:05:35.134Z,41.70
2017-11-08T05:08:03.397Z,39.00
2017-11-08T05:10:32.519Z,47.10
2017-11-08T05:13:00.749Z,46.57
2017-11-08T05:15:29.017Z,35.67
2017-11-08T05:17:57.266Z,45.40
2017-11-08T05:20:25.506Z,40.23
2017-11-08T05:22:54.294Z,44.33
2017-11-08T05:25:22.538Z,41.33
2017-11-08T05:27:51.318Z,39.20
2017-11-08T05:30:20.346Z,54.70
2017-11-08T05:32:48.596Z,47.73
2017-11-08T05:35:16.839Z,40.03
2017-11-08T05:37:45.111Z,42.43
2017-11-08T05:40:13.361Z,43.70
2017-11-08T05:42:41.609Z,43.00
2017-11-08T05:45:10.326Z,42.57
2017-11-08T05:47:38.574Z,44.07
2017-11-08T05:50:06.834Z,43.17
2017-11-08T05:52:35.893Z,42.97
2017-11-08T05:55:04.144Z,43.07
2017-11-08T05:57:32.385Z,42.00
2017-11-08T06:00:00.724Z,42.27
2017-11-08T06:02:28.961Z,42.77
2017-11-08T06:04:57.206Z,49.00
2017-11-08T06:07:26.164Z,42.23
2017-11-08T06:09:54.418Z,45.70
2017-11-08T06:12:22.683Z,41.67
2017-11-08T06:14:50.950Z,42.83
2017-11-08T06:17:19.207Z,43.30
2017-11-08T06:19:48.226Z,48.27
2017-11-08T06:22:16.506Z,46.53
2017-11-08T06:24:44.753Z,46.50
2017-11-08T06:27:13.775Z,42.73
2017-11-08T06:29:42.691Z,48.53
2017-11-08T06:32:10.941Z,44.13
2017-11-08T06:34:39.294Z,44.27
2017-11-08T06:37:07.586Z,47.57
2017-11-08T06:39:35.843Z,45.33
2017-11-08T06:42:04.919Z,54.87
2017-11-08T06:44:33.189Z,47.40
2017-11-08T06:47:01.516Z,47.17
2017-11-08T06:49:29.988Z,46.13
2017-11-08T06:51:59.944Z,48.67
2017-11-08T06:54:28.198Z,50.90
2017-11-08T06:56:56.453Z,48.83
2017-11-08T06:59:24.730Z,45.53
2017-11-08T07:01:53.752Z,46.97
2017-11-08T07:04:22.005Z,49.47
2017-11-08T07:06:50.294Z,49.77
2017-11-08T07:09:18.545Z,47.40
2017-11-08T07:11:47.566Z,43.93
2017-11-08T07:14:16.292Z,51.23
2017-11-08T07:16:44.534Z,48.27
2017-11-08T07:19:12.797Z,48.47
2017-11-08T07:21:41.854Z,49.27
2017-11-08T07:24:10.106Z,42.53
2017-11-08T07:26:38.362Z,49.57
2017-11-08T07:29:06.703Z,42.50
2017-11-08T07:31:35.199Z,45.17
2017-11-08T07:34:04.236Z,49.77
2017-11-08T07:36:32.654Z,45.10
2017-11-08T07:39:01.109Z,51.13
2017-11-08T07:41:29.355Z,47.70
2017-11-08T07:43:57.630Z,49.53
2017-11-08T07:46:25.885Z,44.53
2017-11-08T07:48:54.906Z,53.87
2017-11-08T07:51:23.180Z,46.90
2017-11-08T07:53:51.426Z,46.70
2017-11-08T07:56:20.554Z,46.53
2017-11-08T07:58:49.272Z,52.10
2017-11-08T08:01:17.518Z,48.17
2017-11-08T08:03:45.776Z,45.73
2017-11-08T08:06:14.822Z,47.23
2017-11-08T08:08:43.062Z,45.37
2017-11-08T08:11:16.894Z,45.50
2017-11-08T08:13:45.151Z,47.60
2017-11-08T08:16:13.396Z,46.63
2017-11-08T08:18:42.789Z,53.57
2017-11-08T08:21:15.997Z,46.77
2017-11-08T08:23:44.278Z,44.43
2017-11-08T08:26:12.759Z,45.03
2017-11-08T08:28:41.006Z,45.63
2017-11-08T08:31:09.536Z,45.73
2017-11-08T08:33:37.970Z,46.13
2017-11-08T08:36:06.223Z,45.40
2017-11-08T08:38:34.713Z,47.27
2017-11-08T08:41:02.967Z,46.33
2017-11-08T08:43:31.319Z,51.80
2017-11-08T08:45:59.618Z,59.67
2017-11-08T08:48:27.874Z,50.27
2017-11-08T08:50:56.126Z,45.93
2017-11-08T08:53:24.402Z,50.50
2017-11-08T08:55:52.653Z,49.13
2017-11-08T08:58:20.906Z,46.57
2017-11-08T09:00:49.399Z,42.70
2017-11-08T09:03:20.461Z,57.93
2017-11-08T09:05:48.823Z,49.30
2017-11-08T09:08:17.082Z,47.10
2017-11-08T09:10:45.335Z,46.60
2017-11-08T09:13:13.586Z,45.63
2017-11-08T09:15:41.864Z,49.37
2017-11-08T09:18:10.883Z,49.87
2017-11-08T09:20:39.130Z,48.23
2017-11-08T09:23:07.662Z,47.93
2017-11-08T09:25:35.919Z,45.13
2017-11-08T09:28:04.166Z,49.90
2017-11-08T09:30:33.354Z,44.17
2017-11-08T09:33:01.594Z,47.30
2017-11-08T09:35:30.134Z,50.43
2017-11-08T09:38:04.012Z,51.77
2017-11-08T09:40:32.277Z,51.33
2017-11-08T09:43:03.291Z,54.00
2017-11-08T09:45:31.986Z,51.93
2017-11-08T09:48:00.238Z,51.13
2017-11-08T09:50:28.486Z,50.10
2017-11-08T09:52:56.766Z,48.00
2017-11-08T09:55:26.962Z,51.10
2017-11-08T09:57:55.216Z,51.97
2017-11-08T10:00:23.495Z,48.43
2017-11-08T10:02:54.694Z,54.00
2017-11-08T10:05:23.724Z,47.13
2017-11-08T10:07:52.425Z,53.40
2017-11-08T10:10:20.649Z,52.33
2017-11-08T10:15:45.478Z,56.33
2017-11-08T10:18:13.758Z,51.87
2017-11-08T10:20:42.009Z,56.40
2017-11-08T10:23:10.268Z,47.23
2017-11-08T10:25:38.646Z,49.13
2017-11-08T10:28:06.898Z,51.80
2017-11-08T10:30:35.177Z,48.63
2017-11-08T10:33:03.430Z,54.10
2017-11-08T10:35:32.092Z,52.57
2017-11-08T10:38:01.139Z,49.70
2017-11-08T10:40:29.422Z,54.37
2017-11-08T10:42:57.639Z,52.13
2017-11-08T10:45:25.887Z,55.90
2017-11-08T10:47:55.496Z,56.83
2017-11-08T10:50:23.811Z,53.70
2017-11-08T10:53:09.899Z,62.33
2017-11-08T10:55:38.151Z,60.90
2017-11-08T10:58:06.411Z,55.50
2017-11-08T11:00:37.574Z,62.70
2017-11-08T11:03:06.749Z,61.53
2017-11-08T11:05:35.763Z,65.10
2017-11-08T11:08:04.377Z,65.13
2017-11-08T11:10:32.660Z,63.47
2017-11-08T11:13:03.684Z,57.57
2017-11-08T11:15:31.961Z,74.63
2017-11-08T11:18:00.206Z,62.53
2017-11-08T11:20:28.607Z,66.27
2017-11-08T11:22:56.865Z,62.13
2017-11-08T11:25:27.011Z,69.00
2017-11-08T11:27:55.264Z,59.50
2017-11-08T11:30:25.724Z,59.97
2017-11-08T11:32:53.979Z,56.40
2017-11-08T11:35:22.262Z,60.17
2017-11-08T11:37:51.059Z,59.53
2017-11-08T11:40:19.321Z,61.43
2017-11-08T11:42:47.596Z,61.33
2017-11-08T11:45:15.871Z,64.50
2017-11-08T11:47:44.891Z,62.60
2017-11-08T11:50:13.147Z,62.53
2017-11-08T11:52:41.563Z,54.57
2017-11-08T11:55:09.819Z,58.53
2017-11-08T11:57:38.200Z,62.87
2017-11-08T12:00:06.624Z,66.53
2017-11-08T12:02:34.878Z,66.93
2017-11-08T12:05:03.139Z,62.67
2017-11-08T12:07:33.265Z,61.80
2017-11-08T12:10:03.293Z,56.73
2017-11-08T12:12:31.526Z,55.53
2017-11-08T12:14:59.899Z,58.83
2017-11-08T12:17:31.061Z,62.03
2017-11-08T12:19:59.304Z,62.87
2017-11-08T12:22:27.716Z,62.00
2017-11-08T12:24:56.063Z,60.70
2017-11-08T12:27:29.867Z,60.03
2017-11-08T12:29:58.367Z,62.90
2017-11-08T12:32:27.537Z,66.70
2017-11-08T12:34:58.611Z,64.10
2017-11-08T12:37:27.676Z,67.17
2017-11-08T12:39:56.727Z,63.90
2017-11-08T12:42:26.619Z,69.30
2017-11-08T12:45:12.687Z,68.23
2017-11-08T12:47:40.973Z,66.30
2017-11-08T12:50:11.701Z,68.17
2017-11-08T12:52:40.230Z,68.00
2017-11-08T12:55:08.931Z,67.83
2017-11-08T12:57:37.211Z,62.07
2017-11-08T13:00:05.472Z,59.60
2017-11-08T13:02:33.755Z,67.97
2017-11-08T13:05:02.019Z,63.70
2017-11-08T13:07:30.259Z,67.30
2017-11-08T13:09:58.540Z,62.43
2017-11-08T13:12:26.799Z,61.57
2017-11-08T13:14:55.057Z,58.37
2017-11-08T13:17:23.772Z,68.93
2017-11-08T13:19:52.015Z,71.23
2017-11-08T13:22:20.276Z,58.73
2017-11-08T13:24:48.555Z,65.00
2017-11-08T13:27:16.807Z,65.20
2017-11-08T13:29:45.068Z,64.07
2017-11-08T13:32:13.724Z,58.43
2017-11-08T13:34:41.981Z,62.67
2017-11-08T13:37:10.238Z,62.67
2017-11-08T13:39:39.032Z,60.97
2017-11-08T13:42:09.172Z,65.37
2017-11-08T13:44:37.427Z,63.73
2017-11-08T13:47:05.712Z,68.53
2017-11-08T13:49:33.992Z,63.03
2017-11-08T13:52:02.259Z,59.23
2017-11-08T13:54:30.535Z,62.73
2017-11-08T13:56:58.788Z,66.17
2017-11-08T13:59:27.808Z,59.53
2017-11-08T14:01:56.163Z,60.43
2017-11-08T14:04:25.188Z,71.10
2017-11-08T14:06:53.471Z,60.30
2017-11-08T14:09:21.999Z,63.33
2017-11-08T14:11:50.368Z,64.87
2017-11-08T14:14:18.620Z,61.57
2017-11-08T14:16:46.921Z,58.80
2017-11-08T14:19:15.171Z,67.73
2017-11-08T14:21:43.414Z,59.30
2017-11-08T14:24:12.888Z,69.30
2017-11-08T14:26:41.136Z,72.13
2017-11-08T14:29:09.398Z,64.47
2017-11-08T14:31:37.671Z,63.50
2017-11-08T14:34:08.851Z,59.47
2017-11-08T14:36:37.100Z,63.60
2017-11-08T14:39:05.382Z,61.33
2017-11-08T14:41:33.828Z,60.93
2017-11-08T14:44:02.856Z,55.07
2017-11-08T14:46:31.368Z,65.10
2017-11-08T14:48:59.614Z,61.60
2017-11-08T14:51:27.855Z,65.77
2017-11-08T14:54:03.136Z,64.87
2017-11-08T14:56:31.395Z,69.20
2017-11-08T14:58:59.639Z,55.20
2017-11-08T15:01:27.923Z,58.27
2017-11-08T15:03:56.935Z,63.77
2017-11-08T15:06:25.195Z,60.40
2017-11-08T15:08:53.553Z,59.30
2017-11-08T15:11:21.795Z,70.57
2017-11-08T15:13:50.057Z,67.27
2017-11-08T15:16:18.334Z,67.27
2017-11-08T15:18:46.628Z,68.63
2017-11-08T15:21:15.001Z,56.37
2017-11-08T15:23:43.271Z,61.73
2017-11-08T15:26:11.553Z,59.77
2017-11-08T15:28:39.816Z,58.30
2017-11-08T15:31:08.525Z,61.07
2017-11-08T15:33:36.779Z,69.20
2017-11-08T15:36:05.246Z,66.63
2017-11-08T15:38:34.351Z,63.37
2017-11-08T15:41:02.615Z,56.10
2017-11-08T15:43:31.907Z,55.93
2017-11-08T15:46:00.968Z,60.77
2017-11-08T15:48:29.264Z,55.50
2017-11-08T15:50:57.502Z,63.10
2017-11-08T15:53:26.399Z,53.43
2017-11-08T15:55:57.566Z,63.03
2017-11-08T15:58:25.822Z,55.90
2017-11-08T16:00:54.095Z,56.83
2017-11-08T16:03:22.352Z,54.33
2017-11-08T16:05:50.599Z,58.57
2017-11-08T16:08:19.651Z,57.03
2017-11-08T16:10:47.930Z,57.73
2017-11-08T16:13:16.202Z,56.53
2017-11-08T16:15:45.525Z,61.30
2017-11-08T16:18:13.995Z,57.73
2017-11-08T16:20:42.244Z,60.83
2017-11-08T16:23:10.611Z,54.80
2017-11-08T16:25:38.872Z,59.37
2017-11-08T16:28:07.879Z,70.90
2017-11-08T16:30:36.155Z,63.07
2017-11-08T16:33:04.417Z,59.40
2017-11-08T16:35:34.263Z,58.70
2017-11-08T16:38:02.866Z,60.83
2017-11-08T16:40:31.108Z,62.30
2017-11-08T16:43:00.405Z,64.10
2017-11-08T16:45:28.690Z,62.30
2017-11-08T16:47:57.124Z,58.70
2017-11-08T16:50:26.287Z,61.00
2017-11-08T16:52:54.563Z,61.13
2017-11-08T16:55:22.883Z,61.47
2017-11-08T16:57:51.270Z,65.50
2017-11-08T17:00:20.419Z,82.00
2017-11-08T17:02:48.692Z,65.10
2017-11-08T17:05:16.995Z,70.17
2017-11-08T17:07:45.273Z,57.97
2017-11-08T17:10:13.523Z,61.70
2017-11-08T17:12:41.789Z,67.53
2017-11-08T17:15:10.056Z,60.07
2017-11-08T17:17:38.763Z,67.17
2017-11-08T17:20:07.037Z,66.20
2017-11-08T17:22:35.376Z,62.80
2017-11-08T17:25:04.398Z,63.57
2017-11-08T17:27:32.643Z,69.43
2017-11-08T17:30:01.001Z,65.13
2017-11-08T17:32:29.273Z,71.90
2017-11-08T17:34:57.527Z,82.53
2017-11-08T17:37:25.820Z,69.50
2017-11-08T17:39:54.405Z,68.30
2017-11-08T17:42:22.672Z,67.93
2017-11-08T17:44:51.176Z,61.30
2017-11-08T17:47:19.427Z,63.90
2017-11-08T17:49:47.679Z,62.00
2017-11-08T17:52:15.951Z,61.73
2017-11-08T17:54:44.216Z,65.93
2017-11-08T17:57:12.535Z,70.50
2017-11-08T17:59:40.799Z,63.93
2017-11-08T18:02:09.059Z,73.30
2017-11-08T18:04:37.310Z,66.47
2017-11-08T18:07:06.270Z,66.30
2017-11-08T18:09:34.522Z,61.63
2017-11-08T18:12:02.775Z,62.23
2017-11-08T18:14:31.081Z,65.80
2017-11-08T18:16:59.341Z,69.00
2017-11-08T18:19:27.595Z,63.40
2017-11-08T18:21:55.871Z,69.43
2017-11-08T18:24:24.935Z,63.53
2017-11-08T18:26:53.187Z,68.13
2017-11-08T18:29:22.263Z,69.60
2017-11-08T18:31:50.523Z,68.57
2017-11-08T18:34:18.776Z,65.60
2017-11-08T18:36:47.812Z,65.87
2017-11-08T18:39:16.080Z,70.57
2017-11-08T18:41:44.334Z,65.97
2017-11-08T18:44:12.607Z,65.30
2017-11-08T18:46:41.187Z,64.80
2017-11-08T18:49:10.207Z,63.20
2017-11-08T18:51:38.769Z,67.80
2017-11-08T18:54:07.778Z,64.30
2017-11-08T18:56:36.068Z,66.67
2017-11-08T18:59:04.334Z,65.40
2017-11-08T19:01:32.588Z,68.80
2017-11-08T19:04:00.843Z,62.80
2017-11-08T19:06:29.125Z,62.20
2017-11-08T19:08:57.383Z,87.03
2017-11-08T19:11:25.673Z,65.50
2017-11-08T19:13:54.324Z,60.63
2017-11-08T19:16:22.570Z,65.97
2017-11-08T19:18:50.824Z,62.57
2017-11-08T19:21:19.863Z,65.00
2017-11-08T19:23:48.115Z,59.20
2017-11-08T19:26:16.365Z,64.10
2017-11-08T19:28:44.647Z,64.30
2017-11-08T19:31:12.900Z,58.20
2017-11-08T19:33:41.165Z,64.87
2017-11-08T19:36:09.511Z,64.30
2017-11-08T19:38:37.848Z,62.30
2017-11-08T19:41:06.242Z,60.90
2017-11-08T19:43:34.551Z,64.00
2017-11-08T19:46:02.855Z,74.10
2017-11-08T19:48:31.401Z,63.07
2017-11-08T19:50:59.711Z,64.33
2017-11-08T19:53:28.723Z,60.33
2017-11-08T19:55:56.982Z,56.63
2017-11-08T19:58:25.511Z,67.90
2017-11-08T20:00:53.760Z,70.93
2017-11-08T20:03:22.007Z,70.47
2017-11-08T20:05:50.292Z,66.10
2017-11-08T20:08:18.548Z,75.73
2017-11-08T20:10:46.815Z,73.00
2017-11-08T20:13:15.075Z,70.33
2017-11-08T20:15:44.092Z,63.67
2017-11-08T20:18:12.339Z,68.43
2017-11-08T20:20:40.861Z,63.80
2017-11-08T20:23:09.137Z,70.27
2017-11-08T20:25:37.391Z,72.70
2017-11-08T20:28:05.678Z,77.67
2017-11-08T20:30:33.932Z,65.30
2017-11-08T20:33:02.176Z,64.57
2017-11-08T20:35:30.456Z,68.20
2017-11-08T20:37:58.709Z,63.77
2017-11-08T20:40:26.959Z,70.63
2017-11-08T20:42:55.669Z,58.90
2017-11-08T20:45:23.920Z,63.13
2017-11-08T20:47:52.163Z,89.40
2017-11-08T20:50:20.859Z,74.47
2017-11-08T20:52:49.111Z,68.33
2017-11-08T20:55:17.361Z,68.30
2017-11-08T20:57:45.635Z,72.00
2017-11-08T21:00:13.887Z,66.53
2017-11-08T21:02:42.142Z,69.97
2017-11-08T21:05:10.600Z,74.80
2017-11-08T21:07:38.852Z,62.30
2017-11-08T21:10:07.110Z,65.37
2017-11-08T21:12:36.471Z,76.60
2017-11-08T21:15:05.498Z,66.70
2017-11-08T21:17:33.757Z,73.37
2017-11-08T21:20:02.791Z,77.73
2017-11-08T21:22:31.099Z,66.30
2017-11-08T21:25:00.135Z,70.63
2017-11-08T21:27:28.826Z,65.33
2017-11-08T21:29:57.084Z,72.27
2017-11-08T21:32:25.331Z,76.23
2017-11-08T21:34:53.604Z,76.33
2017-11-08T21:37:21.968Z,69.50
2017-11-08T21:39:50.210Z,91.47
2017-11-08T21:42:18.491Z,100.53
2017-11-08T21:44:46.743Z,84.43
2017-11-08T21:47:16.126Z,68.13
2017-11-08T21:49:45.274Z,73.90
2017-11-08T21:52:13.954Z,71.50
2017-11-08T21:54:42.195Z,69.37
2017-11-08T21:57:10.808Z,72.60
2017-11-08T21:59:39.051Z,76.80
2017-11-08T22:02:07.300Z,76.13
2017-11-08T22:04:35.567Z,74.20
2017-11-08T22:07:03.849Z,74.53
2017-11-08T22:09:32.082Z,78.83
2017-11-08T22:12:00.731Z,74.43
2017-11-08T22:14:28.981Z,79.53
2017-11-08T22:16:57.226Z,72.57
2017-11-08T22:19:25.508Z,77.50
2017-11-08T22:21:53.768Z,74.63
2017-11-08T22:24:22.879Z,79.20
2017-11-08T22:26:51.159Z,80.10
2017-11-08T22:29:19.410Z,75.93
2017-11-08T22:31:48.427Z,74.03
2017-11-08T22:34:17.031Z,81.00
2017-11-08T22:36:45.291Z,79.53
2017-11-08T22:39:13.544Z,76.03
2017-11-08T22:41:41.820Z,70.53
2017-11-08T22:44:10.834Z,68.60
2017-11-08T22:46:39.087Z,72.90
2017-11-08T22:49:07.364Z,72.10
2017-11-08T22:51:35.620Z,80.87
2017-11-08T22:54:04.328Z,80.60
2017-11-08T22:56:33.682Z,79.10
2017-11-08T22:59:01.931Z,81.07
2017-11-08T23:01:30.185Z,85.60
2017-11-08T23:03:58.463Z,72.33
2017-11-08T23:06:27.481Z,76.87
2017-11-08T23:08:55.734Z,76.30
2017-11-08T23:11:24.009Z,81.03
2017-11-08T23:13:52.257Z,72.60
2017-11-08T23:16:22.353Z,67.20
2017-11-08T23:18:50.924Z,74.50
2017-11-08T23:21:19.184Z,74.37
2017-11-08T23:23:47.436Z,72.47
2017-11-08T23:26:15.726Z,75.73
2017-11-08T23:28:44.874Z,74.23
2017-11-08T23:31:13.115Z,72.63
2017-11-08T23:33:41.391Z,74.43
2017-11-08T23:36:09.648Z,78.97
2017-11-08T23:38:37.892Z,75.50
2017-11-08T23:41:06.648Z,77.70
2017-11-08T23:43:34.898Z,77.83
2017-11-08T23:46:03.271Z,70.63
2017-11-08T23:48:31.537Z,75.13
2017-11-08T23:50:59.789Z,75.63
2017-11-08T23:53:28.054Z,68.13
2017-11-08T23:55:57.515Z,70.50
2017-11-08T23:58:25.772Z,74.33
